sensor_id;sensor_type;location;lat;lon;timestamp;temperature;humidity
59469;DHT22;45277;52.768;18.262;2023-02-16T05:02:12;-0.70;99.90
59469;DHT22;45277;52.768;18.262;2023-02-16T05:03:44;-0.70;99.90
59469;DHT22;45277;52.768;18.262;2023-02-16T05:05:15;-0.70;99.90
59469;DHT22;45277;52.768;18.262;2023-02-16T05:06:47;-0.80;99.90
59469;DHT22;45277;52.768;18.262;2023-02-16T05:08:19;-0.90;99.90
59469;DHT22;45277;52.768;18.262;2023-02-16T05:09:50;-0.90;99.90
59469;DHT22;45277;52.768;18.262;2023-02-16T05:11:21;-0.90;99.90
59469;DHT22;45277;52.768;18.262;2023-02-16T05:13:11;-1.00;99.90
59469;DHT22;45277;52.768;18.262;2023-02-16T05:15:02;-1.00;99.90
59469;DHT22;45277;52.768;18.262;2023-02-16T05:16:33;-1.00;99.90
59469;DHT22;45277;52.768;18.262;2023-02-16T05:18:05;-1.10;99.90
59469;DHT22;45277;52.768;18.262;2023-02-16T05:19:36;-1.00;99.90
59469;DHT22;45277;52.768;18.262;2023-02-16T05:21:08;-1.10;99.90
59469;DHT22;45277;52.768;18.262;2023-02-16T05:22:58;-1.10;99.90
59469;DHT22;45277;52.768;18.262;2023-02-16T05:24:29;-1.20;99.90
59469;DHT22;45277;52.768;18.262;2023-02-16T05:26:00;-1.20;99.90
59469;DHT22;45277;52.768;18.262;2023-02-16T05:27:32;-1.30;99.90
59469;DHT22;45277;52.768;18.262;2023-02-16T05:29:04;-1.40;99.90
59469;DHT22;45277;52.768;18.262;2023-02-16T05:30:36;-1.40;99.90
59469;DHT22;45277;52.768;18.262;2023-02-16T05:32:08;-1.50;99.90
59469;DHT22;45277;52.768;18.262;2023-02-16T05:33:39;-1.50;99.90
59469;DHT22;45277;52.768;18.262;2023-02-16T05:35:10;-1.40;99.90
59469;DHT22;45277;52.768;18.262;2023-02-16T05:36:42;-1.40;99.90
59469;DHT22;45277;52.768;18.262;2023-02-16T05:38:13;-1.30;99.90
59469;DHT22;45277;52.768;18.262;2023-02-16T05:39:45;-1.20;99.90
59469;DHT22;45277;52.768;18.262;2023-02-16T05:41:17;-1.20;99.90
59469;DHT22;45277;52.768;18.262;2023-02-16T05:42:54;-1.20;99.90
59469;DHT22;45277;52.768;18.262;2023-02-16T05:44:26;-1.20;99.90
59469;DHT22;45277;52.768;18.262;2023-02-16T05:45:58;-1.30;99.90
59469;DHT22;45277;52.768;18.262;2023-02-16T05:47:29;-1.20;99.90
59469;DHT22;45277;52.768;18.262;2023-02-16T05:49:02;-1.10;99.90
59469;DHT22;45277;52.768;18.262;2023-02-16T05:50:34;-1.10;99.90
59469;DHT22;45277;52.768;18.262;2023-02-16T05:52:05;-1.10;99.90
59469;DHT22;45277;52.768;18.262;2023-02-16T05:53:36;-1.10;99.90
59469;DHT22;45277;52.768;18.262;2023-02-16T05:55:08;-1.20;99.90
59469;DHT22;45277;52.768;18.262;2023-02-16T05:56:39;-1.20;99.90
59469;DHT22;45277;52.768;18.262;2023-02-16T05:58:11;-1.20;99.90
59469;DHT22;45277;52.768;18.262;2023-02-16T05:59:42;-1.30;99.90
59469;DHT22;45277;52.768;18.262;2023-02-16T06:01:14;-1.20;99.90
59469;DHT22;45277;52.768;18.262;2023-02-16T06:02:46;-1.30;99.90
59469;DHT22;45277;52.768;18.262;2023-02-16T06:04:19;-1.30;99.90
59469;DHT22;45277;52.768;18.262;2023-02-16T06:05:55;-1.30;99.90
59469;DHT22;45277;52.768;18.262;2023-02-16T06:07:27;-1.40;99.90
59469;DHT22;45277;52.768;18.262;2023-02-16T06:08:58;-1.40;99.90
59469;DHT22;45277;52.768;18.262;2023-02-16T06:10:30;-1.40;99.90
59469;DHT22;45277;52.768;18.262;2023-02-16T06:12:01;-1.40;99.90
59469;DHT22;45277;52.768;18.262;2023-02-16T06:13:33;-1.40;99.90
59469;DHT22;45277;52.768;18.262;2023-02-16T06:15:04;-1.40;99.90
59469;DHT22;45277;52.768;18.262;2023-02-16T06:16:38;-1.40;99.90
59469;DHT22;45277;52.768;18.262;2023-02-16T06:18:10;-1.50;99.90
59469;DHT22;45277;52.768;18.262;2023-02-16T06:19:42;-1.40;99.90
59469;DHT22;45277;52.768;18.262;2023-02-16T06:21:13;-1.40;99.90
59469;DHT22;45277;52.768;18.262;2023-02-16T06:22:45;-1.30;99.90
59469;DHT22;45277;52.768;18.262;2023-02-16T06:24:16;-1.30;99.90
59469;DHT22;45277;52.768;18.262;2023-02-16T06:25:49;-1.20;99.90
59469;DHT22;45277;52.768;18.262;2023-02-16T06:27:22;-1.20;99.90
59469;DHT22;45277;52.768;18.262;2023-02-16T06:28:54;-1.10;99.90
59469;DHT22;45277;52.768;18.262;2023-02-16T06:30:25;-1.00;99.90
59469;DHT22;45277;52.768;18.262;2023-02-16T06:31:57;-0.90;99.90
59469;DHT22;45277;52.768;18.262;2023-02-16T06:33:28;-0.90;99.90
59469;DHT22;45277;52.768;18.262;2023-02-16T06:35:00;-0.90;99.90
59469;DHT22;45277;52.768;18.262;2023-02-16T06:36:32;-0.80;99.90
59469;DHT22;45277;52.768;18.262;2023-02-16T06:38:04;-0.80;99.90
59469;DHT22;45277;52.768;18.262;2023-02-16T06:39:35;-0.80;99.90
59469;DHT22;45277;52.768;18.262;2023-02-16T06:41:07;-0.70;99.90
59469;DHT22;45277;52.768;18.262;2023-02-16T06:42:38;-0.70;99.90
59469;DHT22;45277;52.768;18.262;2023-02-16T06:44:11;-0.70;99.90
59469;DHT22;45277;52.768;18.262;2023-02-16T06:45:44;-0.60;99.90
59469;DHT22;45277;52.768;18.262;2023-02-16T06:47:15;-0.60;99.90
59469;DHT22;45277;52.768;18.262;2023-02-16T06:48:46;-0.50;99.90
59469;DHT22;45277;52.768;18.262;2023-02-16T06:50:18;-0.40;99.90
59469;DHT22;45277;52.768;18.262;2023-02-16T06:51:49;-0.30;99.90
59469;DHT22;45277;52.768;18.262;2023-02-16T06:53:21;-0.30;99.90
59469;DHT22;45277;52.768;18.262;2023-02-16T06:54:53;-0.30;99.90
59469;DHT22;45277;52.768;18.262;2023-02-16T06:56:24;-0.20;99.90
59469;DHT22;45277;52.768;18.262;2023-02-16T06:57:55;-0.20;99.90
59469;DHT22;45277;52.768;18.262;2023-02-16T06:59:27;-0.10;99.90
59469;DHT22;45277;52.768;18.262;2023-02-16T07:00:58;-0.20;99.90
59469;DHT22;45277;52.768;18.262;2023-02-16T07:02:30;-0.10;99.90
59469;DHT22;45277;52.768;18.262;2023-02-16T07:04:02;-0.10;99.90
59469;DHT22;45277;52.768;18.262;2023-02-16T07:05:33;-0.10;99.90
59469;DHT22;45277;52.768;18.262;2023-02-16T07:07:04;-0.10;99.90
59469;DHT22;45277;52.768;18.262;2023-02-16T07:08:36;-0.10;99.90
59469;DHT22;45277;52.768;18.262;2023-02-16T07:10:08;0.00;99.90
59469;DHT22;45277;52.768;18.262;2023-02-16T07:11:40;0.00;99.90
59469;DHT22;45277;52.768;18.262;2023-02-16T07:13:11;0.10;99.90
59469;DHT22;45277;52.768;18.262;2023-02-16T07:14:43;0.10;99.90
59469;DHT22;45277;52.768;18.262;2023-02-16T07:16:14;0.10;99.90
59469;DHT22;45277;52.768;18.262;2023-02-16T07:17:46;0.10;99.90
59469;DHT22;45277;52.768;18.262;2023-02-16T07:19:17;0.20;99.90
59469;DHT22;45277;52.768;18.262;2023-02-16T07:20:49;0.30;99.90
59469;DHT22;45277;52.768;18.262;2023-02-16T07:22:21;0.30;99.90
59469;DHT22;45277;52.768;18.262;2023-02-16T07:23:52;0.40;99.90
59469;DHT22;45277;52.768;18.262;2023-02-16T07:25:23;0.40;99.90
59469;DHT22;45277;52.768;18.262;2023-02-16T07:26:56;0.40;99.90
59469;DHT22;45277;52.768;18.262;2023-02-16T07:28:28;0.50;99.90
59469;DHT22;45277;52.768;18.262;2023-02-16T07:30:00;0.50;99.90
59469;DHT22;45277;52.768;18.262;2023-02-16T07:31:32;0.50;99.90
59469;DHT22;45277;52.768;18.262;2023-02-16T07:33:03;0.60;99.90
59469;DHT22;45277;52.768;18.262;2023-02-16T07:34:36;0.60;99.90
59469;DHT22;45277;52.768;18.262;2023-02-16T07:36:10;0.70;99.90
59469;DHT22;45277;52.768;18.262;2023-02-16T07:37:41;0.70;99.90
59469;DHT22;45277;52.768;18.262;2023-02-16T07:39:13;0.80;99.90
59469;DHT22;45277;52.768;18.262;2023-02-16T07:40:44;0.80;99.90
59469;DHT22;45277;52.768;18.262;2023-02-16T07:42:16;0.90;99.90
59469;DHT22;45277;52.768;18.262;2023-02-16T07:43:47;0.90;99.90
59469;DHT22;45277;52.768;18.262;2023-02-16T07:45:19;0.90;99.90
59469;DHT22;45277;52.768;18.262;2023-02-16T07:46:50;1.00;99.90
59469;DHT22;45277;52.768;18.262;2023-02-16T07:48:22;0.90;99.90
59469;DHT22;45277;52.768;18.262;2023-02-16T07:49:53;0.90;99.90
59469;DHT22;45277;52.768;18.262;2023-02-16T07:51:28;1.00;99.90
59469;DHT22;45277;52.768;18.262;2023-02-16T07:53:01;1.00;99.90
59469;DHT22;45277;52.768;18.262;2023-02-16T07:54:33;1.10;99.90
59469;DHT22;45277;52.768;18.262;2023-02-16T07:56:05;1.00;99.90
59469;DHT22;45277;52.768;18.262;2023-02-16T07:57:38;1.00;99.90
59469;DHT22;45277;52.768;18.262;2023-02-16T07:59:10;1.00;99.90
59469;DHT22;45277;52.768;18.262;2023-02-16T08:00:41;1.10;99.90
59469;DHT22;45277;52.768;18.262;2023-02-16T08:02:16;1.10;99.90
59469;DHT22;45277;52.768;18.262;2023-02-16T08:03:48;1.20;99.90
59469;DHT22;45277;52.768;18.262;2023-02-16T08:05:20;1.20;99.90
59469;DHT22;45277;52.768;18.262;2023-02-16T08:06:52;1.20;99.90
59469;DHT22;45277;52.768;18.262;2023-02-16T08:08:24;1.30;99.90
59469;DHT22;45277;52.768;18.262;2023-02-16T08:09:55;1.30;99.90
59469;DHT22;45277;52.768;18.262;2023-02-16T08:11:27;1.30;99.90
59469;DHT22;45277;52.768;18.262;2023-02-16T08:12:58;1.40;99.90
59469;DHT22;45277;52.768;18.262;2023-02-16T08:14:30;1.40;99.90
59469;DHT22;45277;52.768;18.262;2023-02-16T08:16:02;1.40;99.90
59469;DHT22;45277;52.768;18.262;2023-02-16T08:17:34;1.50;99.90
59469;DHT22;45277;52.768;18.262;2023-02-16T08:19:06;1.50;99.90
59469;DHT22;45277;52.768;18.262;2023-02-16T08:20:39;1.60;99.90
59469;DHT22;45277;52.768;18.262;2023-02-16T08:22:11;1.60;99.90
59469;DHT22;45277;52.768;18.262;2023-02-16T08:23:45;1.60;99.90
59469;DHT22;45277;52.768;18.262;2023-02-16T08:25:22;1.60;99.90
59469;DHT22;45277;52.768;18.262;2023-02-16T08:26:54;1.60;99.90
59469;DHT22;45277;52.768;18.262;2023-02-16T08:28:25;1.60;99.90
59469;DHT22;45277;52.768;18.262;2023-02-16T08:29:58;1.60;99.90
59469;DHT22;45277;52.768;18.262;2023-02-16T08:31:32;1.70;99.90
59469;DHT22;45277;52.768;18.262;2023-02-16T08:33:04;1.70;99.90
59469;DHT22;45277;52.768;18.262;2023-02-16T08:34:36;1.80;99.90
59469;DHT22;45277;52.768;18.262;2023-02-16T08:36:16;1.80;99.90
59469;DHT22;45277;52.768;18.262;2023-02-16T08:37:47;1.80;99.90
59469;DHT22;45277;52.768;18.262;2023-02-16T08:39:22;1.90;99.90
59469;DHT22;45277;52.768;18.262;2023-02-16T08:40:54;2.00;99.90
59469;DHT22;45277;52.768;18.262;2023-02-16T08:42:26;2.00;99.90
59469;DHT22;45277;52.768;18.262;2023-02-16T08:43:57;2.10;99.90
59469;DHT22;45277;52.768;18.262;2023-02-16T08:45:29;2.10;99.90
59469;DHT22;45277;52.768;18.262;2023-02-16T08:47:01;2.10;99.90
59469;DHT22;45277;52.768;18.262;2023-02-16T08:48:32;2.20;99.90
59469;DHT22;45277;52.768;18.262;2023-02-16T08:50:06;2.20;99.90
59469;DHT22;45277;52.768;18.262;2023-02-16T08:51:48;2.20;99.90
59469;DHT22;45277;52.768;18.262;2023-02-16T08:53:22;2.30;99.90
59469;DHT22;45277;52.768;18.262;2023-02-16T08:54:54;2.40;99.90
59469;DHT22;45277;52.768;18.262;2023-02-16T08:56:27;2.40;99.90
59469;DHT22;45277;52.768;18.262;2023-02-16T08:57:59;2.50;99.90
59469;DHT22;45277;52.768;18.262;2023-02-16T08:59:31;2.50;99.90
59469;DHT22;45277;52.768;18.262;2023-02-16T09:01:05;2.60;99.90
59469;DHT22;45277;52.768;18.262;2023-02-16T09:02:38;2.60;99.90
59469;DHT22;45277;52.768;18.262;2023-02-16T09:04:10;2.70;99.90
59469;DHT22;45277;52.768;18.262;2023-02-16T09:05:42;2.80;99.90
59469;DHT22;45277;52.768;18.262;2023-02-16T09:07:14;2.90;99.90
59469;DHT22;45277;52.768;18.262;2023-02-16T09:08:50;3.00;99.90
59469;DHT22;45277;52.768;18.262;2023-02-16T09:10:22;3.00;99.90
59469;DHT22;45277;52.768;18.262;2023-02-16T09:11:54;3.00;99.90
59469;DHT22;45277;52.768;18.262;2023-02-16T09:13:27;3.00;99.90
59469;DHT22;45277;52.768;18.262;2023-02-16T09:14:59;3.10;99.90
59469;DHT22;45277;52.768;18.262;2023-02-16T09:16:31;3.10;99.90
59469;DHT22;45277;52.768;18.262;2023-02-16T09:18:09;3.20;99.90
59469;DHT22;45277;52.768;18.262;2023-02-16T09:19:42;3.40;99.90
59469;DHT22;45277;52.768;18.262;2023-02-16T09:21:17;3.40;99.90
59469;DHT22;45277;52.768;18.262;2023-02-16T09:22:49;3.40;99.90
59469;DHT22;45277;52.768;18.262;2023-02-16T09:24:21;3.50;99.90
59469;DHT22;45277;52.768;18.262;2023-02-16T09:25:52;3.50;99.90
59469;DHT22;45277;52.768;18.262;2023-02-16T09:27:24;3.60;99.90
59469;DHT22;45277;52.768;18.262;2023-02-16T09:28:55;3.60;99.90
59469;DHT22;45277;52.768;18.262;2023-02-16T09:30:27;3.60;99.90
59469;DHT22;45277;52.768;18.262;2023-02-16T09:31:59;3.70;99.90
59469;DHT22;45277;52.768;18.262;2023-02-16T09:33:30;3.80;99.90
59469;DHT22;45277;52.768;18.262;2023-02-16T09:35:02;3.80;99.90
59469;DHT22;45277;52.768;18.262;2023-02-16T09:36:37;3.90;99.90
59469;DHT22;45277;52.768;18.262;2023-02-16T09:38:08;3.90;99.90
59469;DHT22;45277;52.768;18.262;2023-02-16T09:39:40;3.90;99.90
59469;DHT22;45277;52.768;18.262;2023-02-16T09:41:40;4.00;99.90
59469;DHT22;45277;52.768;18.262;2023-02-16T09:43:42;4.20;99.90
59469;DHT22;45277;52.768;18.262;2023-02-16T09:45:16;4.20;99.90
59469;DHT22;45277;52.768;18.262;2023-02-16T09:46:51;4.30;99.90
59469;DHT22;45277;52.768;18.262;2023-02-16T09:48:40;4.40;99.90
59469;DHT22;45277;52.768;18.262;2023-02-16T09:50:28;4.50;99.90
59469;DHT22;45277;52.768;18.262;2023-02-16T09:52:27;4.50;99.90
59469;DHT22;45277;52.768;18.262;2023-02-16T09:58:11;4.60;99.90
59469;DHT22;45277;52.768;18.262;2023-02-16T09:59:50;4.70;99.90
59469;DHT22;45277;52.768;18.262;2023-02-16T10:05:44;4.80;99.90
59469;DHT22;45277;52.768;18.262;2023-02-16T10:07:32;4.90;99.90
59469;DHT22;45277;52.768;18.262;2023-02-16T10:09:13;5.00;99.90
59469;DHT22;45277;52.768;18.262;2023-02-16T10:10:55;5.00;99.90
59469;DHT22;45277;52.768;18.262;2023-02-16T10:12:39;5.10;99.90
59469;DHT22;45277;52.768;18.262;2023-02-16T10:15:49;5.30;99.90
59469;DHT22;45277;52.768;18.262;2023-02-16T10:19:20;5.40;99.90
59469;DHT22;45277;52.768;18.262;2023-02-16T10:20:55;5.50;99.90
59469;DHT22;45277;52.768;18.262;2023-02-16T10:22:32;5.50;99.90
59469;DHT22;45277;52.768;18.262;2023-02-16T10:24:05;5.50;99.90
59469;DHT22;45277;52.768;18.262;2023-02-16T10:27:21;5.60;99.90
59469;DHT22;45277;52.768;18.262;2023-02-16T10:28:56;5.70;99.90
59469;DHT22;45277;52.768;18.262;2023-02-16T10:30:30;5.70;99.90
59469;DHT22;45277;52.768;18.262;2023-02-16T10:35:56;5.70;99.90
59469;DHT22;45277;52.768;18.262;2023-02-16T10:37:52;5.80;99.90
59469;DHT22;45277;52.768;18.262;2023-02-16T10:39:38;5.90;99.90
59469;DHT22;45277;52.768;18.262;2023-02-16T10:45:24;6.20;99.90
59469;DHT22;45277;52.768;18.262;2023-02-16T10:47:03;6.50;99.90
59469;DHT22;45277;52.768;18.262;2023-02-16T10:48:35;6.70;99.90
59469;DHT22;45277;52.768;18.262;2023-02-16T10:50:22;6.70;99.90
59469;DHT22;45277;52.768;18.262;2023-02-16T10:51:55;6.80;99.90
59469;DHT22;45277;52.768;18.262;2023-02-16T10:55:02;7.00;99.90
59469;DHT22;45277;52.768;18.262;2023-02-16T10:58:23;7.30;99.90
59469;DHT22;45277;52.768;18.262;2023-02-16T10:59:58;7.30;99.90
59469;DHT22;45277;52.768;18.262;2023-02-16T11:01:43;7.40;99.90
59469;DHT22;45277;52.768;18.262;2023-02-16T11:03:16;7.60;99.90
59469;DHT22;45277;52.768;18.262;2023-02-16T11:04:51;7.80;99.90
59469;DHT22;45277;52.768;18.262;2023-02-16T11:06:24;7.90;99.90
59469;DHT22;45277;52.768;18.262;2023-02-16T11:07:57;7.90;99.90
59469;DHT22;45277;52.768;18.262;2023-02-16T11:09:32;7.90;99.90
59469;DHT22;45277;52.768;18.262;2023-02-16T11:11:08;7.90;99.90
59469;DHT22;45277;52.768;18.262;2023-02-16T11:12:41;7.70;99.90
59469;DHT22;45277;52.768;18.262;2023-02-16T11:14:23;7.60;99.90
59469;DHT22;45277;52.768;18.262;2023-02-16T11:15:59;7.50;99.90
59469;DHT22;45277;52.768;18.262;2023-02-16T11:17:46;7.40;99.90
59469;DHT22;45277;52.768;18.262;2023-02-16T11:19:21;7.50;99.90
59469;DHT22;45277;52.768;18.262;2023-02-16T11:20:56;7.60;99.90
59469;DHT22;45277;52.768;18.262;2023-02-16T11:24:01;8.00;99.90
59469;DHT22;45277;52.768;18.262;2023-02-16T11:25:33;8.10;99.90
59469;DHT22;45277;52.768;18.262;2023-02-16T11:30:18;8.60;99.90
59469;DHT22;45277;52.768;18.262;2023-02-16T11:31:55;8.70;99.90
59469;DHT22;45277;52.768;18.262;2023-02-16T11:33:27;8.80;99.90
59469;DHT22;45277;52.768;18.262;2023-02-16T11:34:59;8.70;99.90
59469;DHT22;45277;52.768;18.262;2023-02-16T11:36:40;8.80;99.90
59469;DHT22;45277;52.768;18.262;2023-02-16T11:38:34;9.00;99.90
59469;DHT22;45277;52.768;18.262;2023-02-16T11:42:00;9.00;99.90
59469;DHT22;45277;52.768;18.262;2023-02-16T11:43:36;9.00;99.90
59469;DHT22;45277;52.768;18.262;2023-02-16T11:45:27;9.10;99.90
59469;DHT22;45277;52.768;18.262;2023-02-16T11:47:02;9.10;99.90
59469;DHT22;45277;52.768;18.262;2023-02-16T11:48:34;8.90;99.90
59469;DHT22;45277;52.768;18.262;2023-02-16T11:51:46;8.70;99.90
59469;DHT22;45277;52.768;18.262;2023-02-16T11:53:23;8.80;99.90
59469;DHT22;45277;52.768;18.262;2023-02-16T11:54:57;8.90;99.90
59469;DHT22;45277;52.768;18.262;2023-02-16T11:56:31;8.90;99.90
59469;DHT22;45277;52.768;18.262;2023-02-16T11:58:23;8.90;99.90
59469;DHT22;45277;52.768;18.262;2023-02-16T11:59:57;8.80;99.90
59469;DHT22;45277;52.768;18.262;2023-02-16T12:07:20;8.90;99.90
59469;DHT22;45277;52.768;18.262;2023-02-16T12:09:06;8.90;99.90
59469;DHT22;45277;52.768;18.262;2023-02-16T12:17:14;8.80;99.90
59469;DHT22;45277;52.768;18.262;2023-02-16T12:18:58;8.80;99.90
59469;DHT22;45277;52.768;18.262;2023-02-16T12:24:19;9.40;99.90
59469;DHT22;45277;52.768;18.262;2023-02-16T12:26:29;9.60;99.90
59469;DHT22;45277;52.768;18.262;2023-02-16T12:28:16;10.10;99.90
59469;DHT22;45277;52.768;18.262;2023-02-16T12:29:58;10.60;89.90
59469;DHT22;45277;52.768;18.262;2023-02-16T12:33:56;11.50;64.00
59469;DHT22;45277;52.768;18.262;2023-02-16T12:35:44;12.20;43.70
59469;DHT22;45277;52.768;18.262;2023-02-16T12:37:51;12.50;20.80
59469;DHT22;45277;52.768;18.262;2023-02-16T12:39:39;12.50;16.70
59469;DHT22;45277;52.768;18.262;2023-02-16T12:45:15;11.60;25.20
59469;DHT22;45277;52.768;18.262;2023-02-16T12:46:54;11.50;35.70
59469;DHT22;45277;52.768;18.262;2023-02-16T12:50:13;11.60;34.70
59469;DHT22;45277;52.768;18.262;2023-02-16T12:55:09;11.60;39.80
59469;DHT22;45277;52.768;18.262;2023-02-16T12:56:51;11.50;40.80
59469;DHT22;45277;52.768;18.262;2023-02-16T12:58:29;11.40;46.20
59469;DHT22;45277;52.768;18.262;2023-02-16T13:00:19;11.30;49.20
59469;DHT22;45277;52.768;18.262;2023-02-16T13:01:54;11.30;51.80
59469;DHT22;45277;52.768;18.262;2023-02-16T13:03:34;11.40;47.80
59469;DHT22;45277;52.768;18.262;2023-02-16T13:05:19;11.60;41.30
59469;DHT22;45277;52.768;18.262;2023-02-16T13:08:35;12.10;42.00
59469;DHT22;45277;52.768;18.262;2023-02-16T13:10:35;12.10;24.90
59469;DHT22;45277;52.768;18.262;2023-02-16T13:12:14;11.80;34.20
59469;DHT22;45277;52.768;18.262;2023-02-16T13:13:52;11.80;41.80
59469;DHT22;45277;52.768;18.262;2023-02-16T13:15:43;11.90;33.90
59469;DHT22;45277;52.768;18.262;2023-02-16T13:17:31;12.20;26.00
59469;DHT22;45277;52.768;18.262;2023-02-16T13:19:04;12.20;21.10
59469;DHT22;45277;52.768;18.262;2023-02-16T13:20:43;12.20;22.30
59469;DHT22;45277;52.768;18.262;2023-02-16T13:22:25;11.90;22.90
59469;DHT22;45277;52.768;18.262;2023-02-16T13:26:13;11.20;45.50
59469;DHT22;45277;52.768;18.262;2023-02-16T13:34:18;11.30;48.40
59469;DHT22;45277;52.768;18.262;2023-02-16T13:35:58;11.60;47.50
59469;DHT22;45277;52.768;18.262;2023-02-16T13:41:55;12.90;15.60
59469;DHT22;45277;52.768;18.262;2023-02-16T13:43:35;12.60;14.00
59469;DHT22;45277;52.768;18.262;2023-02-16T13:45:40;12.30;17.40
59469;DHT22;45277;52.768;18.262;2023-02-16T13:47:17;11.70;26.70
59469;DHT22;45277;52.768;18.262;2023-02-16T13:48:52;11.30;47.80
59469;DHT22;45277;52.768;18.262;2023-02-16T13:50:28;11.30;50.80
59469;DHT22;45277;52.768;18.262;2023-02-16T13:52:01;11.30;52.70
59469;DHT22;45277;52.768;18.262;2023-02-16T13:53:36;11.20;58.10
59469;DHT22;45277;52.768;18.262;2023-02-16T13:55:22;11.00;66.40
59469;DHT22;45277;52.768;18.262;2023-02-16T13:56:54;11.40;67.30
59469;DHT22;45277;52.768;18.262;2023-02-16T13:58:28;11.90;46.00
59469;DHT22;45277;52.768;18.262;2023-02-16T14:00:02;12.40;33.40
59469;DHT22;45277;52.768;18.262;2023-02-16T14:01:38;12.70;23.70
59469;DHT22;45277;52.768;18.262;2023-02-16T14:03:32;13.10;16.00
59469;DHT22;45277;52.768;18.262;2023-02-16T14:05:09;13.30;15.10
59469;DHT22;45277;52.768;18.262;2023-02-16T14:06:42;13.80;11.50
59469;DHT22;45277;52.768;18.262;2023-02-16T14:08:22;13.90;7.60
59469;DHT22;45277;52.768;18.262;2023-02-16T14:09:54;13.80;6.40
59469;DHT22;45277;52.768;18.262;2023-02-16T14:11:25;13.60;7.10
59469;DHT22;45277;52.768;18.262;2023-02-16T14:12:57;13.60;7.30
59469;DHT22;45277;52.768;18.262;2023-02-16T14:14:41;13.60;7.50
59469;DHT22;45277;52.768;18.262;2023-02-16T14:17:48;13.50;8.60
59469;DHT22;45277;52.768;18.262;2023-02-16T14:19:24;13.70;7.90
59469;DHT22;45277;52.768;18.262;2023-02-16T14:21:01;13.70;7.00
59469;DHT22;45277;52.768;18.262;2023-02-16T14:24:31;13.50;7.60
59469;DHT22;45277;52.768;18.262;2023-02-16T14:26:07;13.40;8.90
59469;DHT22;45277;52.768;18.262;2023-02-16T14:27:52;13.50;9.00
59469;DHT22;45277;52.768;18.262;2023-02-16T14:29:30;13.20;8.90
59469;DHT22;45277;52.768;18.262;2023-02-16T14:31:16;13.10;10.60
59469;DHT22;45277;52.768;18.262;2023-02-16T14:35:03;12.70;13.30
59469;DHT22;45277;52.768;18.262;2023-02-16T14:38:47;12.50;24.10
59469;DHT22;45277;52.768;18.262;2023-02-16T14:42:21;12.50;23.40
59469;DHT22;45277;52.768;18.262;2023-02-16T14:55:17;10.80;76.60
59469;DHT22;45277;52.768;18.262;2023-02-16T14:56:53;10.60;90.00
59469;DHT22;45277;52.768;18.262;2023-02-16T14:58:45;10.40;94.40
59469;DHT22;45277;52.768;18.262;2023-02-16T15:00:28;10.20;99.60
59469;DHT22;45277;52.768;18.262;2023-02-16T15:02:31;10.00;99.90
59469;DHT22;45277;52.768;18.262;2023-02-16T15:04:03;10.00;99.90
59469;DHT22;45277;52.768;18.262;2023-02-16T15:05:35;9.90;99.90
59469;DHT22;45277;52.768;18.262;2023-02-16T15:07:09;9.80;99.90
59469;DHT22;45277;52.768;18.262;2023-02-16T15:08:43;9.70;99.90
59469;DHT22;45277;52.768;18.262;2023-02-16T15:10:22;9.70;99.90
59469;DHT22;45277;52.768;18.262;2023-02-16T15:12:06;9.50;99.90
59469;DHT22;45277;52.768;18.262;2023-02-16T15:14:00;9.60;99.90
59469;DHT22;45277;52.768;18.262;2023-02-16T15:15:45;9.70;99.90
59469;DHT22;45277;52.768;18.262;2023-02-16T15:17:40;9.90;99.90
59469;DHT22;45277;52.768;18.262;2023-02-16T15:19:18;9.90;99.90
59469;DHT22;45277;52.768;18.262;2023-02-16T15:20:55;10.00;99.90
59469;DHT22;45277;52.768;18.262;2023-02-16T15:22:29;10.00;99.90
59469;DHT22;45277;52.768;18.262;2023-02-16T15:24:00;10.00;99.90
59469;DHT22;45277;52.768;18.262;2023-02-16T15:27:04;10.00;99.90
59469;DHT22;45277;52.768;18.262;2023-02-16T15:28:37;9.90;99.90
59469;DHT22;45277;52.768;18.262;2023-02-16T15:30:22;9.80;99.90
59469;DHT22;45277;52.768;18.262;2023-02-16T15:31:57;9.60;99.90
59469;DHT22;45277;52.768;18.262;2023-02-16T15:33:37;9.40;99.90
59469;DHT22;45277;52.768;18.262;2023-02-16T15:35:11;9.20;99.90
59469;DHT22;45277;52.768;18.262;2023-02-16T15:36:44;8.90;99.90
59469;DHT22;45277;52.768;18.262;2023-02-16T15:38:21;8.70;99.90
59469;DHT22;45277;52.768;18.262;2023-02-16T15:39:53;8.40;99.90
59469;DHT22;45277;52.768;18.262;2023-02-16T15:41:37;8.10;99.90
59469;DHT22;45277;52.768;18.262;2023-02-16T15:45:31;7.60;99.90
59469;DHT22;45277;52.768;18.262;2023-02-16T15:47:14;7.20;99.90
59469;DHT22;45277;52.768;18.262;2023-02-16T15:48:47;6.90;99.90
59469;DHT22;45277;52.768;18.262;2023-02-16T15:50:23;6.70;99.90
59469;DHT22;45277;52.768;18.262;2023-02-16T15:51:59;6.50;99.90
59469;DHT22;45277;52.768;18.262;2023-02-16T15:55:14;6.10;99.90
59469;DHT22;45277;52.768;18.262;2023-02-16T15:56:48;6.00;99.90
59469;DHT22;45277;52.768;18.262;2023-02-16T15:58:20;5.80;99.90
59469;DHT22;45277;52.768;18.262;2023-02-16T15:59:56;5.70;99.90
59469;DHT22;45277;52.768;18.262;2023-02-16T16:01:33;5.60;99.90
59469;DHT22;45277;52.768;18.262;2023-02-16T16:03:07;5.40;99.90
59469;DHT22;45277;52.768;18.262;2023-02-16T16:04:42;5.30;99.90
59469;DHT22;45277;52.768;18.262;2023-02-16T16:06:15;5.30;99.90
59469;DHT22;45277;52.768;18.262;2023-02-16T16:07:47;5.20;99.90
59469;DHT22;45277;52.768;18.262;2023-02-16T16:09:30;5.20;99.90
59469;DHT22;45277;52.768;18.262;2023-02-16T16:11:07;5.10;99.90
59469;DHT22;45277;52.768;18.262;2023-02-16T16:12:39;5.10;99.90
59469;DHT22;45277;52.768;18.262;2023-02-16T16:14:13;5.00;99.90
59469;DHT22;45277;52.768;18.262;2023-02-16T16:15:55;5.10;99.90
59469;DHT22;45277;52.768;18.262;2023-02-16T16:17:37;5.00;99.90
59469;DHT22;45277;52.768;18.262;2023-02-16T16:19:36;5.00;99.90
59469;DHT22;45277;52.768;18.262;2023-02-16T16:21:27;4.90;99.90
59469;DHT22;45277;52.768;18.262;2023-02-16T16:23:24;4.80;99.90
59469;DHT22;45277;52.768;18.262;2023-02-16T16:25:00;4.80;99.90
59469;DHT22;45277;52.768;18.262;2023-02-16T16:26:55;4.70;99.90
59469;DHT22;45277;52.768;18.262;2023-02-16T16:32:01;4.40;99.90
59469;DHT22;45277;52.768;18.262;2023-02-16T16:35:49;4.20;99.90
59469;DHT22;45277;52.768;18.262;2023-02-16T16:37:28;4.20;99.90
59469;DHT22;45277;52.768;18.262;2023-02-16T16:40:54;4.00;99.90
59469;DHT22;45277;52.768;18.262;2023-02-16T16:42:28;4.00;99.90
59469;DHT22;45277;52.768;18.262;2023-02-16T16:44:00;4.00;99.90
59469;DHT22;45277;52.768;18.262;2023-02-16T16:45:43;4.00;99.90
59469;DHT22;45277;52.768;18.262;2023-02-16T16:47:49;4.00;99.90
59469;DHT22;45277;52.768;18.262;2023-02-16T16:49:22;4.00;99.90
59469;DHT22;45277;52.768;18.262;2023-02-16T16:51:17;4.00;99.90
59469;DHT22;45277;52.768;18.262;2023-02-16T16:52:53;4.00;99.90
59469;DHT22;45277;52.768;18.262;2023-02-16T16:54:32;4.00;99.90